createdAt,value
2017-10-06T00:01:45.251Z,11.20
2017-10-06T00:04:13.734Z,11.20
2017-10-06T00:06:42.271Z,11.20
2017-10-06T00:09:11.287Z,11.10
2017-10-06T00:11:40.207Z,11.10
2017-10-06T00:14:08.523Z,11.10
2017-10-06T00:16:36.959Z,11.10
2017-10-06T00:19:05.857Z,11.10
2017-10-06T00:21:34.331Z,11.20
2017-10-06T00:24:02.628Z,11.20
2017-10-06T00:26:30.912Z,11.30
2017-10-06T00:28:59.203Z,11.30
2017-10-06T00:31:27.763Z,11.30
2017-10-06T00:33:56.126Z,11.30
2017-10-06T00:36:24.497Z,11.40
2017-10-06T00:38:52.908Z,11.50
2017-10-06T00:41:21.203Z,11.40
2017-10-06T00:43:49.897Z,11.40
2017-10-06T00:46:18.186Z,11.40
2017-10-06T00:48:46.600Z,11.40
2017-10-06T00:51:14.967Z,11.50
2017-10-06T00:53:44.090Z,11.40
2017-10-06T00:56:12.494Z,11.30
2017-10-06T00:58:41.904Z,11.30
2017-10-06T01:01:11.603Z,11.30
2017-10-06T01:03:39.915Z,11.30
2017-10-06T01:06:08.243Z,11.30
2017-10-06T01:08:36.734Z,11.30
2017-10-06T01:11:06.017Z,11.30
2017-10-06T01:13:34.687Z,11.30
2017-10-06T01:16:03.059Z,11.20
2017-10-06T01:18:32.107Z,11.20
2017-10-06T01:21:00.599Z,11.20
2017-10-06T01:23:29.487Z,11.20
2017-10-06T01:25:58.766Z,11.20
2017-10-06T01:28:27.306Z,11.30
2017-10-06T01:30:56.402Z,11.20
2017-10-06T01:33:25.823Z,11.20
2017-10-06T01:35:54.130Z,11.20
2017-10-06T01:38:22.454Z,11.20
2017-10-06T01:40:51.583Z,11.30
2017-10-06T01:43:19.867Z,11.30
2017-10-06T01:45:48.536Z,11.40
2017-10-06T01:48:16.891Z,11.40
2017-10-06T01:50:45.271Z,11.40
2017-10-06T01:53:14.362Z,11.20
2017-10-06T01:55:43.562Z,11.20
2017-10-06T01:58:11.891Z,11.20
2017-10-06T02:00:40.806Z,11.10
2017-10-06T02:03:09.233Z,11.20
2017-10-06T02:05:37.748Z,11.20
2017-10-06T02:08:06.070Z,11.20
2017-10-06T02:10:35.563Z,11.20
2017-10-06T02:13:03.924Z,11.10
2017-10-06T02:15:32.901Z,11.10
2017-10-06T02:18:01.339Z,11.00
2017-10-06T02:20:29.866Z,11.00
2017-10-06T02:22:58.331Z,11.00
2017-10-06T02:25:26.658Z,11.00
2017-10-06T02:27:54.954Z,11.00
2017-10-06T02:30:24.174Z,11.10
2017-10-06T02:32:52.898Z,11.10
2017-10-06T02:35:21.590Z,11.10
2017-10-06T02:37:50.054Z,11.10
2017-10-06T02:40:18.508Z,11.10
2017-10-06T02:42:46.987Z,11.10
2017-10-06T02:45:15.584Z,11.20
2017-10-06T02:47:43.885Z,11.10
2017-10-06T02:50:12.163Z,11.00
2017-10-06T02:52:40.532Z,11.00
2017-10-06T02:55:08.993Z,11.00
2017-10-06T02:57:37.287Z,11.00
2017-10-06T03:00:05.747Z,11.10
2017-10-06T03:02:34.102Z,11.10
2017-10-06T03:05:03.167Z,11.00
2017-10-06T03:07:31.447Z,11.10
2017-10-06T03:10:00.498Z,11.10
2017-10-06T03:12:29.319Z,11.20
2017-10-06T03:14:57.623Z,11.20
2017-10-06T03:17:26.159Z,11.20
2017-10-06T03:19:54.430Z,11.10
2017-10-06T03:22:22.732Z,11.00
2017-10-06T03:24:51.064Z,11.00
2017-10-06T03:27:19.418Z,11.00
2017-10-06T03:29:47.720Z,11.10
2017-10-06T03:32:16.019Z,11.00
2017-10-06T03:34:44.722Z,11.00
2017-10-06T03:37:13.027Z,11.00
2017-10-06T03:39:41.411Z,11.00
2017-10-06T03:42:09.686Z,11.00
2017-10-06T03:44:38.029Z,11.00
2017-10-06T03:47:06.302Z,10.90
2017-10-06T03:49:34.787Z,10.90
2017-10-06T03:52:03.511Z,10.80
2017-10-06T03:54:31.779Z,10.80
2017-10-06T03:57:00.969Z,10.80
2017-10-06T03:59:29.250Z,10.80
2017-10-06T04:01:57.559Z,10.90
2017-10-06T04:07:25.215Z,10.80
2017-10-06T04:09:55.014Z,10.80
2017-10-06T04:12:23.330Z,10.80
2017-10-06T04:14:52.778Z,10.90
2017-10-06T04:17:21.055Z,10.90
2017-10-06T04:19:49.741Z,11.00
2017-10-06T04:22:18.196Z,11.00
2017-10-06T04:24:46.491Z,11.00
2017-10-06T04:27:14.771Z,11.00
2017-10-06T04:29:43.052Z,11.00
2017-10-06T04:32:11.345Z,11.00
2017-10-06T04:34:40.062Z,11.00
2017-10-06T04:37:09.121Z,11.00
2017-10-06T04:39:37.434Z,11.10
2017-10-06T04:42:06.531Z,11.10
2017-10-06T04:44:35.547Z,11.10
2017-10-06T04:47:03.867Z,11.10
2017-10-06T04:49:32.222Z,11.10
2017-10-06T04:52:00.515Z,11.10
2017-10-06T04:54:28.831Z,11.10
2017-10-06T04:56:58.404Z,11.10
2017-10-06T04:59:26.886Z,11.20
2017-10-06T05:01:55.219Z,11.20
2017-10-06T05:04:24.293Z,11.10
2017-10-06T05:06:53.411Z,11.10
2017-10-06T05:09:22.479Z,11.00
2017-10-06T05:11:50.845Z,11.10
2017-10-06T05:14:19.207Z,11.10
2017-10-06T05:16:47.815Z,11.10
2017-10-06T05:19:16.603Z,11.10
2017-10-06T05:21:45.463Z,11.10
2017-10-06T05:24:13.946Z,11.10
2017-10-06T05:26:42.251Z,11.10
2017-10-06T05:29:11.344Z,11.00
2017-10-06T05:31:39.646Z,10.90
2017-10-06T05:34:08.703Z,10.80
2017-10-06T05:36:37.472Z,10.80
2017-10-06T05:39:06.195Z,10.70
2017-10-06T05:41:34.482Z,10.90
2017-10-06T05:44:02.808Z,10.90
2017-10-06T05:46:31.302Z,10.80
2017-10-06T05:48:59.630Z,10.90
2017-10-06T05:51:28.695Z,10.90
2017-10-06T05:53:57.003Z,10.90
2017-10-06T05:56:26.175Z,11.00
2017-10-06T05:58:54.446Z,11.00
2017-10-06T06:01:22.791Z,11.20
2017-10-06T06:03:51.203Z,11.20
2017-10-06T06:06:19.533Z,11.10
2017-10-06T06:08:48.046Z,11.10
2017-10-06T06:11:16.439Z,11.10
2017-10-06T06:13:45.008Z,11.20
2017-10-06T06:16:13.706Z,11.30
2017-10-06T06:18:42.048Z,11.30
2017-10-06T06:21:10.452Z,11.30
2017-10-06T06:23:39.015Z,11.30
2017-10-06T06:26:07.307Z,11.30
2017-10-06T06:28:35.688Z,11.40
2017-10-06T06:31:03.983Z,11.30
2017-10-06T06:33:32.319Z,11.30
2017-10-06T06:36:00.955Z,11.20
2017-10-06T06:38:29.307Z,11.30
2017-10-06T06:40:57.660Z,11.40
2017-10-06T06:43:26.015Z,11.40
2017-10-06T06:45:55.075Z,11.40
2017-10-06T06:48:23.390Z,11.50
2017-10-06T06:50:52.427Z,11.50
2017-10-06T06:53:20.917Z,11.60
2017-10-06T06:55:49.283Z,11.60
2017-10-06T06:58:17.936Z,11.60
2017-10-06T07:00:47.163Z,11.60
2017-10-06T07:03:15.453Z,11.60
2017-10-06T07:05:43.882Z,11.60
2017-10-06T07:08:12.195Z,11.60
2017-10-06T07:10:40.573Z,11.60
2017-10-06T07:13:08.907Z,11.60
2017-10-06T07:15:37.337Z,11.70
2017-10-06T07:18:06.094Z,11.70
2017-10-06T07:20:34.405Z,11.80
2017-10-06T07:23:02.831Z,11.80
2017-10-06T07:25:31.563Z,11.80
2017-10-06T07:27:59.866Z,11.80
2017-10-06T07:30:28.329Z,11.90
2017-10-06T07:32:56.657Z,12.00
2017-10-06T07:35:25.390Z,12.10
2017-10-06T07:37:54.198Z,12.20
2017-10-06T07:40:22.502Z,12.30
2017-10-06T07:42:50.780Z,12.40
2017-10-06T07:45:34.191Z,12.40
2017-10-06T07:48:02.869Z,12.50
2017-10-06T07:50:31.271Z,12.40
2017-10-06T07:52:59.555Z,12.40
2017-10-06T07:55:27.823Z,12.40
2017-10-06T07:57:56.688Z,12.40
2017-10-06T08:00:24.991Z,12.50
2017-10-06T08:02:53.296Z,12.50
2017-10-06T08:05:21.571Z,12.70
2017-10-06T08:07:49.895Z,12.70
2017-10-06T08:10:18.343Z,12.80
2017-10-06T08:12:46.630Z,12.80
2017-10-06T08:15:15.388Z,13.00
2017-10-06T08:17:44.644Z,13.10
2017-10-06T08:20:12.965Z,13.40
2017-10-06T08:22:42.087Z,13.40
2017-10-06T08:25:10.490Z,13.40
2017-10-06T08:27:39.787Z,13.50
2017-10-06T08:30:08.116Z,13.50
2017-10-06T08:32:36.574Z,13.60
2017-10-06T08:35:04.919Z,13.70
2017-10-06T08:37:33.280Z,13.70
2017-10-06T08:40:01.629Z,13.80
2017-10-06T08:42:30.031Z,13.70
2017-10-06T08:44:58.358Z,13.70
2017-10-06T08:47:26.659Z,13.60
2017-10-06T08:49:54.947Z,13.50
2017-10-06T08:52:24.422Z,13.40
2017-10-06T08:54:52.772Z,13.40
2017-10-06T08:57:21.112Z,13.30
2017-10-06T08:59:49.390Z,13.20
2017-10-06T09:02:18.431Z,13.30
2017-10-06T09:04:46.741Z,13.50
2017-10-06T09:07:15.013Z,13.50
2017-10-06T09:09:44.775Z,13.60
2017-10-06T09:12:18.023Z,13.60
2017-10-06T09:14:46.603Z,13.50
2017-10-06T09:17:15.590Z,13.50
2017-10-06T09:19:43.906Z,13.50
2017-10-06T09:22:12.979Z,13.40
2017-10-06T09:24:41.311Z,13.50
2017-10-06T09:27:09.571Z,13.60
2017-10-06T09:29:38.279Z,13.60
2017-10-06T09:32:06.584Z,13.60
2017-10-06T09:34:34.875Z,13.50
2017-10-06T09:37:04.361Z,13.50
2017-10-06T09:39:32.658Z,13.40
2017-10-06T09:42:00.997Z,13.60
2017-10-06T09:44:29.343Z,13.70
2017-10-06T09:46:57.671Z,13.80
2017-10-06T09:49:26.122Z,14.00
2017-10-06T09:51:54.628Z,14.00
2017-10-06T09:54:22.915Z,14.20
2017-10-06T09:56:51.202Z,14.40
2017-10-06T09:59:19.495Z,14.50
2017-10-06T10:01:48.963Z,14.50
2017-10-06T10:04:17.439Z,14.50
2017-10-06T10:06:45.891Z,14.50
2017-10-06T10:09:14.180Z,14.50
2017-10-06T10:11:42.522Z,14.60
2017-10-06T10:14:11.712Z,14.70
2017-10-06T10:16:40.281Z,14.90
2017-10-06T10:19:08.583Z,15.00
2017-10-06T10:21:37.014Z,15.30
2017-10-06T10:24:05.318Z,15.40
2017-10-06T10:26:33.603Z,15.40
2017-10-06T10:29:01.891Z,15.50
2017-10-06T10:31:30.710Z,15.50
2017-10-06T10:33:59.110Z,15.60
2017-10-06T10:36:27.402Z,15.70
2017-10-06T10:38:55.670Z,15.70
2017-10-06T10:41:24.378Z,15.70
2017-10-06T10:43:52.667Z,15.50
2017-10-06T10:46:21.749Z,15.30
2017-10-06T10:48:50.154Z,15.00
2017-10-06T10:51:18.570Z,14.60
2017-10-06T10:53:47.112Z,14.50
2017-10-06T10:56:15.531Z,14.40
2017-10-06T10:58:43.947Z,14.20
2017-10-06T11:01:12.401Z,14.00
2017-10-06T11:03:40.890Z,14.00
2017-10-06T11:06:09.266Z,13.90
2017-10-06T11:08:37.926Z,13.80
2017-10-06T11:11:06.313Z,13.90
2017-10-06T11:13:34.770Z,13.90
2017-10-06T11:16:03.363Z,13.90
2017-10-06T11:18:31.863Z,14.00
2017-10-06T11:21:00.498Z,14.10
2017-10-06T11:23:28.944Z,14.20
2017-10-06T11:25:57.323Z,14.30
2017-10-06T11:28:25.739Z,14.50
2017-10-06T11:30:54.094Z,14.70
2017-10-06T11:33:22.994Z,15.00
2017-10-06T11:35:51.470Z,15.30
2017-10-06T11:38:19.843Z,15.70
2017-10-06T11:40:48.534Z,15.90
2017-10-06T11:43:16.932Z,16.00
2017-10-06T11:45:45.330Z,16.00
2017-10-06T11:48:14.451Z,16.10
2017-10-06T11:50:43.027Z,16.10
2017-10-06T11:53:11.542Z,16.20
2017-10-06T11:55:40.330Z,16.30
2017-10-06T11:58:08.698Z,16.30
2017-10-06T12:00:37.095Z,16.00
2017-10-06T12:03:05.505Z,15.80
2017-10-06T12:05:34.051Z,15.70
2017-10-06T12:08:02.509Z,15.80
2017-10-06T12:10:30.898Z,15.90
2017-10-06T12:12:59.240Z,16.00
2017-10-06T12:15:27.606Z,16.10
2017-10-06T12:17:56.015Z,16.10
2017-10-06T12:20:24.818Z,16.10
2017-10-06T12:22:53.132Z,16.10
2017-10-06T12:25:21.510Z,16.20
2017-10-06T12:27:49.863Z,16.40
2017-10-06T12:30:18.267Z,16.30
2017-10-06T12:32:46.619Z,16.40
2017-10-06T12:35:15.238Z,16.40
2017-10-06T12:37:43.647Z,16.40
2017-10-06T12:40:12.048Z,16.30
2017-10-06T12:42:40.619Z,16.50
2017-10-06T12:45:09.316Z,16.50
2017-10-06T12:47:37.695Z,16.50
2017-10-06T12:50:06.219Z,16.50
2017-10-06T12:52:34.570Z,16.50
2017-10-06T12:55:02.995Z,16.50
2017-10-06T12:57:31.427Z,16.50
2017-10-06T12:59:59.999Z,16.50
2017-10-06T13:02:28.871Z,16.40
2017-10-06T13:04:57.241Z,16.40
2017-10-06T13:07:26.363Z,16.30
2017-10-06T13:09:54.714Z,16.40
2017-10-06T13:12:23.103Z,16.40
2017-10-06T13:14:52.171Z,16.20
2017-10-06T13:17:20.489Z,16.10
2017-10-06T13:19:49.158Z,16.10
2017-10-06T13:22:18.225Z,16.10
2017-10-06T13:24:46.686Z,16.00
2017-10-06T13:27:15.103Z,16.10
2017-10-06T13:29:44.864Z,16.10
2017-10-06T13:32:13.327Z,16.10
2017-10-06T13:34:41.604Z,16.30
2017-10-06T13:37:10.233Z,16.40
2017-10-06T13:39:38.550Z,16.30
2017-10-06T13:42:07.302Z,16.30
2017-10-06T13:44:35.597Z,16.30
2017-10-06T13:47:03.902Z,16.50
2017-10-06T13:49:32.211Z,16.50
2017-10-06T13:52:00.535Z,16.50
2017-10-06T13:54:28.869Z,16.60
2017-10-06T13:56:57.186Z,16.70
2017-10-06T13:59:25.491Z,16.70
2017-10-06T14:01:54.967Z,16.70
2017-10-06T14:04:23.265Z,16.70
2017-10-06T14:06:52.475Z,16.80
2017-10-06T14:09:20.963Z,16.80
2017-10-06T14:11:49.276Z,16.70
2017-10-06T14:14:17.749Z,16.70
2017-10-06T14:16:46.207Z,16.50
2017-10-06T14:19:14.691Z,16.40
2017-10-06T14:21:44.022Z,16.30
2017-10-06T14:24:12.348Z,16.40
2017-10-06T14:26:40.663Z,16.50
2017-10-06T14:29:09.052Z,16.50
2017-10-06T14:31:37.502Z,16.40
2017-10-06T14:34:06.091Z,16.40
2017-10-06T14:36:34.836Z,16.50
2017-10-06T14:39:04.239Z,16.30
2017-10-06T14:41:32.695Z,16.30
2017-10-06T14:44:01.268Z,16.30
2017-10-06T14:46:29.619Z,16.20
2017-10-06T14:48:58.028Z,16.20
2017-10-06T14:51:26.587Z,16.10
2017-10-06T14:53:54.895Z,16.00
2017-10-06T14:56:23.190Z,16.10
2017-10-06T14:58:51.476Z,16.20
2017-10-06T15:01:20.121Z,16.20
2017-10-06T15:03:48.407Z,16.00
2017-10-06T15:06:16.742Z,15.90
2017-10-06T15:08:45.959Z,15.90
2017-10-06T15:11:14.462Z,15.80
2017-10-06T15:13:42.952Z,15.80
2017-10-06T15:16:11.252Z,15.80
2017-10-06T15:18:39.563Z,15.60
2017-10-06T15:21:08.587Z,15.70
2017-10-06T15:23:37.339Z,15.60
2017-10-06T15:26:06.361Z,15.50
2017-10-06T15:28:34.859Z,15.40
2017-10-06T15:31:03.165Z,15.40
2017-10-06T15:33:31.462Z,15.40
2017-10-06T15:36:00.894Z,15.30
2017-10-06T15:38:29.207Z,15.30
2017-10-06T15:40:58.081Z,15.20
2017-10-06T15:43:26.914Z,15.20
2017-10-06T15:45:55.391Z,15.10
2017-10-06T15:48:24.141Z,15.10
2017-10-06T15:50:52.470Z,15.00
2017-10-06T15:53:21.717Z,14.90
2017-10-06T15:55:50.199Z,14.90
2017-10-06T15:58:18.555Z,14.90
2017-10-06T16:00:46.840Z,14.80
2017-10-06T16:03:15.618Z,14.80
2017-10-06T16:05:43.989Z,14.70
2017-10-06T16:11:16.010Z,14.60
2017-10-06T16:13:44.244Z,14.60
2017-10-06T16:16:12.439Z,14.50
2017-10-06T16:18:40.715Z,14.40
2017-10-06T16:21:08.835Z,14.40
2017-10-06T16:23:37.711Z,14.30
2017-10-06T16:26:07.333Z,14.30
2017-10-06T16:28:36.597Z,14.20
2017-10-06T16:31:04.796Z,14.10
2017-10-06T16:33:32.934Z,14.00
2017-10-06T16:36:01.079Z,14.00
2017-10-06T16:38:29.230Z,13.90
2017-10-06T16:40:58.282Z,13.90
2017-10-06T16:43:26.433Z,13.80
2017-10-06T16:45:54.572Z,13.80
2017-10-06T16:48:22.730Z,13.80
2017-10-06T16:50:50.875Z,13.70
2017-10-06T16:53:19.341Z,13.60
2017-10-06T16:55:47.514Z,13.60
2017-10-06T16:58:15.629Z,13.50
2017-10-06T17:00:43.813Z,13.40
2017-10-06T17:03:12.752Z,13.30
2017-10-06T17:05:41.044Z,13.30
2017-10-06T17:08:09.201Z,13.20
2017-10-06T17:10:37.311Z,13.20
2017-10-06T17:13:05.463Z,13.10
2017-10-06T17:15:33.703Z,13.10
2017-10-06T17:18:03.020Z,13.10
2017-10-06T17:20:31.138Z,13.00
2017-10-06T17:22:59.277Z,13.00
2017-10-06T17:25:27.387Z,12.90
2017-10-06T17:27:55.522Z,13.00
2017-10-06T17:30:23.731Z,13.00
2017-10-06T17:32:52.233Z,12.90
2017-10-06T17:35:20.415Z,12.90
2017-10-06T17:37:49.310Z,12.90
2017-10-06T17:40:18.201Z,13.00
2017-10-06T17:42:47.007Z,13.00
2017-10-06T17:45:15.144Z,12.90
2017-10-06T17:47:44.778Z,12.90
2017-10-06T17:50:13.663Z,12.90
2017-10-06T17:52:42.550Z,12.80
2017-10-06T17:55:11.851Z,12.80
2017-10-06T17:57:40.846Z,12.80
2017-10-06T18:00:08.991Z,12.70
2017-10-06T18:02:37.122Z,12.70
2017-10-06T18:05:05.311Z,12.60
2017-10-06T18:07:33.906Z,12.60
2017-10-06T18:10:02.104Z,12.60
2017-10-06T18:12:30.305Z,12.60
2017-10-06T18:14:58.504Z,12.60
2017-10-06T18:17:26.702Z,12.60
2017-10-06T18:19:54.846Z,12.60
2017-10-06T18:22:22.986Z,12.60
2017-10-06T18:24:51.285Z,12.50
2017-10-06T18:27:19.438Z,12.50
2017-10-06T18:29:47.964Z,12.40
2017-10-06T18:32:16.095Z,12.40
2017-10-06T18:34:44.288Z,12.40
2017-10-06T18:37:13.118Z,12.40
2017-10-06T18:39:41.258Z,12.40
2017-10-06T18:42:10.267Z,12.30
2017-10-06T18:44:38.603Z,12.30
2017-10-06T18:47:06.732Z,12.30
2017-10-06T18:49:34.894Z,12.30
2017-10-06T18:52:03.054Z,12.30
2017-10-06T18:54:32.211Z,12.30
2017-10-06T18:57:00.344Z,12.20
2017-10-06T18:59:28.455Z,12.30
2017-10-06T19:01:56.609Z,12.20
2017-10-06T19:04:24.730Z,12.20
2017-10-06T19:06:52.875Z,12.20
2017-10-06T19:09:21.025Z,12.20
2017-10-06T19:11:49.150Z,12.20
2017-10-06T19:14:17.661Z,12.20
2017-10-06T19:16:46.523Z,12.20
2017-10-06T19:19:14.663Z,12.20
2017-10-06T19:21:42.798Z,12.20
2017-10-06T19:24:10.939Z,12.20
2017-10-06T19:26:39.079Z,12.20
2017-10-06T19:29:07.623Z,12.20
2017-10-06T19:31:35.774Z,12.20
2017-10-06T19:34:03.911Z,12.20
2017-10-06T19:36:32.413Z,12.30
2017-10-06T19:39:00.626Z,12.30
2017-10-06T19:41:29.535Z,12.20
2017-10-06T19:43:57.726Z,12.20
2017-10-06T19:46:26.333Z,12.20
2017-10-06T19:48:54.491Z,12.30
2017-10-06T19:51:22.684Z,12.20
2017-10-06T19:53:50.839Z,12.20
2017-10-06T19:56:19.688Z,12.20
2017-10-06T19:58:47.842Z,12.20
2017-10-06T20:01:15.968Z,12.20
2017-10-06T20:03:44.120Z,12.10
2017-10-06T20:06:12.243Z,12.20
2017-10-06T20:08:40.389Z,12.10
2017-10-06T20:11:08.539Z,12.20
2017-10-06T20:13:36.670Z,12.20
2017-10-06T20:16:04.884Z,12.20
2017-10-06T20:18:33.451Z,12.20
2017-10-06T20:21:02.607Z,12.20
2017-10-06T20:23:30.723Z,12.20
2017-10-06T20:25:59.598Z,12.10
2017-10-06T20:28:29.544Z,12.20
2017-10-06T20:30:57.682Z,12.10
2017-10-06T20:33:25.850Z,12.10
2017-10-06T20:35:53.982Z,12.10
2017-10-06T20:38:22.136Z,12.10
2017-10-06T20:40:51.046Z,12.20
2017-10-06T20:43:19.498Z,12.10
2017-10-06T20:45:47.682Z,12.20
2017-10-06T20:48:16.109Z,12.20
2017-10-06T20:50:44.243Z,12.30
2017-10-06T20:53:12.385Z,12.30
2017-10-06T20:55:40.570Z,12.30
2017-10-06T20:58:08.705Z,12.30
2017-10-06T21:00:36.863Z,12.40
2017-10-06T21:03:05.035Z,12.40
2017-10-06T21:05:33.143Z,12.40
2017-10-06T21:08:01.304Z,12.40
2017-10-06T21:10:29.463Z,12.40
2017-10-06T21:12:57.611Z,12.40
2017-10-06T21:15:25.734Z,12.50
2017-10-06T21:17:53.852Z,12.50
2017-10-06T21:20:22.291Z,12.50
2017-10-06T21:22:51.936Z,12.50
2017-10-06T21:25:20.792Z,12.40
2017-10-06T21:27:48.927Z,12.30
2017-10-06T21:30:17.075Z,12.30
2017-10-06T21:32:45.207Z,12.30
2017-10-06T21:35:13.315Z,12.30
2017-10-06T21:37:42.171Z,12.20
2017-10-06T21:40:10.589Z,12.20
2017-10-06T21:42:38.724Z,12.20
2017-10-06T21:45:06.858Z,12.30
2017-10-06T21:47:34.967Z,12.20
2017-10-06T21:50:03.487Z,12.30
2017-10-06T21:52:32.127Z,12.40
2017-10-06T21:55:00.306Z,12.40
2017-10-06T21:57:28.442Z,12.40
2017-10-06T21:59:56.636Z,12.40
2017-10-06T22:02:26.090Z,12.40
2017-10-06T22:04:54.237Z,12.50
2017-10-06T22:07:22.471Z,12.60
2017-10-06T22:09:50.610Z,12.60
2017-10-06T22:12:18.747Z,12.60
2017-10-06T22:14:46.887Z,12.70
2017-10-06T22:17:15.030Z,12.60
2017-10-06T22:19:43.178Z,12.70
2017-10-06T22:22:11.332Z,12.70
2017-10-06T22:24:40.082Z,12.70
2017-10-06T22:27:08.229Z,12.70
2017-10-06T22:29:36.438Z,12.80
2017-10-06T22:32:04.606Z,12.80
2017-10-06T22:34:33.475Z,12.80
2017-10-06T22:37:01.618Z,12.80
2017-10-06T22:39:29.794Z,12.80
2017-10-06T22:41:57.922Z,12.90
2017-10-06T22:44:26.039Z,12.90
2017-10-06T22:46:54.164Z,13.00
2017-10-06T22:49:22.310Z,12.90
2017-10-06T22:51:50.887Z,12.90
2017-10-06T22:54:19.062Z,13.00
2017-10-06T22:56:47.190Z,13.00
2017-10-06T22:59:15.314Z,12.90
2017-10-06T23:01:43.454Z,13.00
2017-10-06T23:04:11.582Z,13.00
2017-10-06T23:06:40.518Z,13.10
2017-10-06T23:09:08.646Z,13.10
2017-10-06T23:11:37.511Z,13.10
2017-10-06T23:14:05.651Z,13.10
2017-10-06T23:16:34.167Z,13.10
2017-10-06T23:19:02.307Z,13.00
2017-10-06T23:21:30.434Z,13.00
2017-10-06T23:23:58.553Z,13.00
2017-10-06T23:26:26.674Z,12.90
2017-10-06T23:28:54.788Z,12.90
2017-10-06T23:31:22.926Z,12.90
2017-10-06T23:33:51.063Z,12.80
2017-10-06T23:36:19.263Z,12.80
2017-10-06T23:38:48.907Z,12.70
2017-10-06T23:41:17.358Z,12.60
2017-10-06T23:43:45.510Z,12.60
2017-10-06T23:46:13.651Z,12.60
2017-10-06T23:48:41.786Z,12.70
2017-10-06T23:51:10.675Z,12.70
2017-10-06T23:53:39.691Z,12.70
2017-10-06T23:56:07.828Z,12.70
2017-10-06T23:58:35.935Z,12.70
